sensor_id;sensor_type;location;lat;lon;timestamp;P1;durP1;ratioP1;P2;durP2;ratioP2
5696;SDS011;2873;50.966;7.210;2022-08-26T00:01:23;9.23;;;6.80;;
5696;SDS011;2873;50.966;7.210;2022-08-26T00:03:49;6.30;;;5.70;;
5696;SDS011;2873;50.966;7.210;2022-08-26T00:06:15;8.30;;;6.80;;
5696;SDS011;2873;50.966;7.210;2022-08-26T00:08:40;8.50;;;6.85;;
5696;SDS011;2873;50.966;7.210;2022-08-26T00:11:07;8.23;;;6.47;;
5696;SDS011;2873;50.966;7.210;2022-08-26T00:13:33;11.20;;;6.53;;
5696;SDS011;2873;50.966;7.210;2022-08-26T00:15:59;7.68;;;6.15;;
5696;SDS011;2873;50.966;7.210;2022-08-26T00:18:25;6.90;;;6.20;;
5696;SDS011;2873;50.966;7.210;2022-08-26T00:20:51;7.10;;;6.47;;
5696;SDS011;2873;50.966;7.210;2022-08-26T00:23:17;7.60;;;6.20;;
5696;SDS011;2873;50.966;7.210;2022-08-26T00:25:43;7.25;;;6.40;;
5696;SDS011;2873;50.966;7.210;2022-08-26T00:28:09;8.70;;;6.30;;
5696;SDS011;2873;50.966;7.210;2022-08-26T00:30:35;7.43;;;6.15;;
5696;SDS011;2873;50.966;7.210;2022-08-26T00:33:01;7.00;;;6.30;;
5696;SDS011;2873;50.966;7.210;2022-08-26T00:35:27;7.75;;;6.30;;
5696;SDS011;2873;50.966;7.210;2022-08-26T00:37:54;8.50;;;5.70;;
5696;SDS011;2873;50.966;7.210;2022-08-26T00:40:23;7.32;;;6.22;;
5696;SDS011;2873;50.966;7.210;2022-08-26T00:42:52;6.65;;;6.05;;
5696;SDS011;2873;50.966;7.210;2022-08-26T00:45:18;7.25;;;5.80;;
5696;SDS011;2873;50.966;7.210;2022-08-26T00:47:45;8.98;;;6.43;;
5696;SDS011;2873;50.966;7.210;2022-08-26T00:50:14;7.50;;;6.75;;
5696;SDS011;2873;50.966;7.210;2022-08-26T00:52:43;12.30;;;6.60;;
5696;SDS011;2873;50.966;7.210;2022-08-26T00:58:00;9.70;;;6.20;;
5696;SDS011;2873;50.966;7.210;2022-08-26T01:00:27;8.35;;;7.25;;
5696;SDS011;2873;50.966;7.210;2022-08-26T01:02:54;7.37;;;6.67;;
5696;SDS011;2873;50.966;7.210;2022-08-26T01:05:21;7.10;;;6.40;;
5696;SDS011;2873;50.966;7.210;2022-08-26T01:07:47;9.10;;;6.47;;
5696;SDS011;2873;50.966;7.210;2022-08-26T01:10:15;8.52;;;6.43;;
5696;SDS011;2873;50.966;7.210;2022-08-26T01:12:45;10.15;;;6.95;;
5696;SDS011;2873;50.966;7.210;2022-08-26T01:15:29;9.00;;;6.50;;
5696;SDS011;2873;50.966;7.210;2022-08-26T01:17:59;11.97;;;6.90;;
5696;SDS011;2873;50.966;7.210;2022-08-26T01:20:33;9.38;;;7.53;;
5696;SDS011;2873;50.966;7.210;2022-08-26T01:23:20;9.05;;;7.65;;
5696;SDS011;2873;50.966;7.210;2022-08-26T01:25:51;13.65;;;8.80;;
5696;SDS011;2873;50.966;7.210;2022-08-26T01:28:23;13.50;;;10.20;;
5696;SDS011;2873;50.966;7.210;2022-08-26T01:30:52;16.60;;;9.70;;
5696;SDS011;2873;50.966;7.210;2022-08-26T01:33:20;16.85;;;10.70;;
5696;SDS011;2873;50.966;7.210;2022-08-26T01:35:49;23.60;;;12.50;;
5696;SDS011;2873;50.966;7.210;2022-08-26T01:38:15;18.58;;;12.30;;
5696;SDS011;2873;50.966;7.210;2022-08-26T01:40:41;20.13;;;13.68;;
5696;SDS011;2873;50.966;7.210;2022-08-26T01:43:09;21.80;;;15.82;;
5696;SDS011;2873;50.966;7.210;2022-08-26T01:45:44;21.67;;;16.60;;
5696;SDS011;2873;50.966;7.210;2022-08-26T01:48:13;21.30;;;16.05;;
5696;SDS011;2873;50.966;7.210;2022-08-26T01:50:43;22.75;;;16.52;;
5696;SDS011;2873;50.966;7.210;2022-08-26T01:53:10;24.38;;;18.40;;
5696;SDS011;2873;50.966;7.210;2022-08-26T01:55:41;25.92;;;19.58;;
5696;SDS011;2873;50.966;7.210;2022-08-26T01:58:12;31.40;;;20.38;;
5696;SDS011;2873;50.966;7.210;2022-08-26T02:00:41;30.83;;;21.98;;
5696;SDS011;2873;50.966;7.210;2022-08-26T02:03:08;33.60;;;23.00;;
5696;SDS011;2873;50.966;7.210;2022-08-26T02:08:23;34.78;;;26.98;;
5696;SDS011;2873;50.966;7.210;2022-08-26T02:10:59;39.38;;;27.35;;
5696;SDS011;2873;50.966;7.210;2022-08-26T02:13:25;44.00;;;30.13;;
5696;SDS011;2873;50.966;7.210;2022-08-26T02:15:54;48.08;;;31.17;;
5696;SDS011;2873;50.966;7.210;2022-08-26T02:18:21;47.10;;;33.58;;
5696;SDS011;2873;50.966;7.210;2022-08-26T02:20:47;47.15;;;34.00;;
5696;SDS011;2873;50.966;7.210;2022-08-26T02:23:13;52.27;;;38.70;;
5696;SDS011;2873;50.966;7.210;2022-08-26T02:25:51;51.25;;;37.75;;
5696;SDS011;2873;50.966;7.210;2022-08-26T02:28:26;49.38;;;39.28;;
5696;SDS011;2873;50.966;7.210;2022-08-26T02:30:55;48.53;;;38.95;;
5696;SDS011;2873;50.966;7.210;2022-08-26T02:33:21;56.70;;;40.53;;
5696;SDS011;2873;50.966;7.210;2022-08-26T02:35:46;63.65;;;45.58;;
5696;SDS011;2873;50.966;7.210;2022-08-26T02:38:12;59.30;;;42.87;;
5696;SDS011;2873;50.966;7.210;2022-08-26T02:40:38;59.10;;;44.27;;
5696;SDS011;2873;50.966;7.210;2022-08-26T02:43:06;56.40;;;43.78;;
5696;SDS011;2873;50.966;7.210;2022-08-26T02:45:32;63.83;;;48.15;;
5696;SDS011;2873;50.966;7.210;2022-08-26T02:47:58;70.32;;;51.85;;
5696;SDS011;2873;50.966;7.210;2022-08-26T02:50:33;73.03;;;51.33;;
5696;SDS011;2873;50.966;7.210;2022-08-26T02:52:59;69.70;;;51.85;;
5696;SDS011;2873;50.966;7.210;2022-08-26T02:55:25;84.40;;;57.00;;
5696;SDS011;2873;50.966;7.210;2022-08-26T02:57:51;80.95;;;55.55;;
5696;SDS011;2873;50.966;7.210;2022-08-26T03:00:16;83.20;;;56.25;;
5696;SDS011;2873;50.966;7.210;2022-08-26T03:02:42;84.03;;;56.90;;
5696;SDS011;2873;50.966;7.210;2022-08-26T03:05:08;88.40;;;59.03;;
5696;SDS011;2873;50.966;7.210;2022-08-26T03:07:35;86.82;;;59.13;;
5696;SDS011;2873;50.966;7.210;2022-08-26T03:10:01;85.20;;;58.92;;
5696;SDS011;2873;50.966;7.210;2022-08-26T03:12:27;82.90;;;59.88;;
5696;SDS011;2873;50.966;7.210;2022-08-26T03:14:53;81.63;;;57.77;;
5696;SDS011;2873;50.966;7.210;2022-08-26T03:17:18;81.80;;;58.43;;
5696;SDS011;2873;50.966;7.210;2022-08-26T03:19:45;87.30;;;59.97;;
5696;SDS011;2873;50.966;7.210;2022-08-26T03:22:11;87.30;;;59.90;;
5696;SDS011;2873;50.966;7.210;2022-08-26T03:24:37;84.85;;;58.47;;
5696;SDS011;2873;50.966;7.210;2022-08-26T03:27:03;83.70;;;57.17;;
5696;SDS011;2873;50.966;7.210;2022-08-26T03:29:29;87.05;;;59.15;;
5696;SDS011;2873;50.966;7.210;2022-08-26T03:32:14;84.10;;;58.35;;
5696;SDS011;2873;50.966;7.210;2022-08-26T03:34:40;86.07;;;58.60;;
5696;SDS011;2873;50.966;7.210;2022-08-26T03:37:06;76.10;;;56.97;;
5696;SDS011;2873;50.966;7.210;2022-08-26T03:39:32;76.17;;;56.10;;
5696;SDS011;2873;50.966;7.210;2022-08-26T03:41:58;81.22;;;56.88;;
5696;SDS011;2873;50.966;7.210;2022-08-26T03:44:23;81.53;;;57.72;;
5696;SDS011;2873;50.966;7.210;2022-08-26T03:46:50;76.68;;;57.05;;
5696;SDS011;2873;50.966;7.210;2022-08-26T03:49:17;91.10;;;57.87;;
5696;SDS011;2873;50.966;7.210;2022-08-26T03:51:43;82.55;;;60.03;;
5696;SDS011;2873;50.966;7.210;2022-08-26T03:54:08;87.45;;;59.45;;
5696;SDS011;2873;50.966;7.210;2022-08-26T03:56:34;72.40;;;53.47;;
5696;SDS011;2873;50.966;7.210;2022-08-26T03:59:00;78.88;;;55.72;;
5696;SDS011;2873;50.966;7.210;2022-08-26T04:01:26;78.72;;;56.90;;
5696;SDS011;2873;50.966;7.210;2022-08-26T04:03:52;81.57;;;55.40;;
5696;SDS011;2873;50.966;7.210;2022-08-26T04:06:22;77.72;;;54.75;;
5696;SDS011;2873;50.966;7.210;2022-08-26T04:09:00;78.05;;;56.05;;
5696;SDS011;2873;50.966;7.210;2022-08-26T04:11:32;76.55;;;54.55;;
5696;SDS011;2873;50.966;7.210;2022-08-26T04:14:00;81.82;;;56.00;;
5696;SDS011;2873;50.966;7.210;2022-08-26T04:16:28;85.20;;;58.03;;
5696;SDS011;2873;50.966;7.210;2022-08-26T04:18:54;74.85;;;54.40;;
5696;SDS011;2873;50.966;7.210;2022-08-26T04:21:21;74.38;;;54.00;;
5696;SDS011;2873;50.966;7.210;2022-08-26T04:23:48;75.90;;;53.30;;
5696;SDS011;2873;50.966;7.210;2022-08-26T04:26:14;70.57;;;51.58;;
5696;SDS011;2873;50.966;7.210;2022-08-26T04:28:45;73.00;;;52.30;;
5696;SDS011;2873;50.966;7.210;2022-08-26T04:31:12;73.80;;;53.72;;
5696;SDS011;2873;50.966;7.210;2022-08-26T04:33:39;77.97;;;54.85;;
5696;SDS011;2873;50.966;7.210;2022-08-26T04:36:05;71.03;;;50.03;;
5696;SDS011;2873;50.966;7.210;2022-08-26T04:38:31;82.57;;;54.70;;
5696;SDS011;2873;50.966;7.210;2022-08-26T04:40:58;77.03;;;54.90;;
5696;SDS011;2873;50.966;7.210;2022-08-26T04:43:24;82.93;;;52.65;;
5696;SDS011;2873;50.966;7.210;2022-08-26T04:45:54;84.10;;;54.65;;
5696;SDS011;2873;50.966;7.210;2022-08-26T04:48:25;78.28;;;53.65;;
5696;SDS011;2873;50.966;7.210;2022-08-26T04:50:53;79.00;;;52.75;;
5696;SDS011;2873;50.966;7.210;2022-08-26T04:53:18;76.50;;;50.45;;
5696;SDS011;2873;50.966;7.210;2022-08-26T04:55:44;74.30;;;50.40;;
5696;SDS011;2873;50.966;7.210;2022-08-26T04:58:12;72.67;;;51.43;;
5696;SDS011;2873;50.966;7.210;2022-08-26T05:00:39;81.57;;;52.67;;
5696;SDS011;2873;50.966;7.210;2022-08-26T05:03:04;77.00;;;50.30;;
5696;SDS011;2873;50.966;7.210;2022-08-26T05:05:30;83.57;;;52.65;;
5696;SDS011;2873;50.966;7.210;2022-08-26T05:07:55;84.05;;;52.35;;
5696;SDS011;2873;50.966;7.210;2022-08-26T05:10:21;80.90;;;52.03;;
5696;SDS011;2873;50.966;7.210;2022-08-26T05:12:47;81.25;;;52.78;;
5696;SDS011;2873;50.966;7.210;2022-08-26T05:15:13;83.03;;;50.93;;
5696;SDS011;2873;50.966;7.210;2022-08-26T05:17:39;80.22;;;50.35;;
5696;SDS011;2873;50.966;7.210;2022-08-26T05:20:04;81.57;;;49.85;;
5696;SDS011;2873;50.966;7.210;2022-08-26T05:22:30;88.20;;;53.63;;
5696;SDS011;2873;50.966;7.210;2022-08-26T05:24:56;91.55;;;54.50;;
5696;SDS011;2873;50.966;7.210;2022-08-26T05:27:21;85.50;;;51.53;;
5696;SDS011;2873;50.966;7.210;2022-08-26T05:29:47;88.07;;;51.30;;
5696;SDS011;2873;50.966;7.210;2022-08-26T05:32:13;92.10;;;51.80;;
5696;SDS011;2873;50.966;7.210;2022-08-26T05:34:39;99.75;;;54.35;;
5696;SDS011;2873;50.966;7.210;2022-08-26T05:37:04;96.50;;;51.40;;
5696;SDS011;2873;50.966;7.210;2022-08-26T05:39:31;93.63;;;50.63;;
5696;SDS011;2873;50.966;7.210;2022-08-26T05:41:57;88.25;;;50.30;;
5696;SDS011;2873;50.966;7.210;2022-08-26T05:44:23;94.10;;;49.90;;
5696;SDS011;2873;50.966;7.210;2022-08-26T05:46:49;87.37;;;49.67;;
5696;SDS011;2873;50.966;7.210;2022-08-26T05:49:15;89.90;;;48.10;;
5696;SDS011;2873;50.966;7.210;2022-08-26T05:51:41;91.28;;;49.72;;
5696;SDS011;2873;50.966;7.210;2022-08-26T05:54:09;86.07;;;45.53;;
5696;SDS011;2873;50.966;7.210;2022-08-26T05:56:34;85.43;;;46.75;;
5696;SDS011;2873;50.966;7.210;2022-08-26T05:59:01;80.05;;;45.20;;
5696;SDS011;2873;50.966;7.210;2022-08-26T06:01:27;88.50;;;48.08;;
5696;SDS011;2873;50.966;7.210;2022-08-26T06:03:58;90.63;;;46.78;;
5696;SDS011;2873;50.966;7.210;2022-08-26T06:06:27;84.43;;;48.40;;
5696;SDS011;2873;50.966;7.210;2022-08-26T06:08:54;76.97;;;44.77;;
5696;SDS011;2873;50.966;7.210;2022-08-26T06:11:23;79.80;;;45.97;;
5696;SDS011;2873;50.966;7.210;2022-08-26T06:13:54;75.95;;;44.53;;
5696;SDS011;2873;50.966;7.210;2022-08-26T06:16:22;70.50;;;42.13;;
5696;SDS011;2873;50.966;7.210;2022-08-26T06:18:49;74.85;;;44.90;;
5696;SDS011;2873;50.966;7.210;2022-08-26T06:21:23;77.47;;;42.90;;
5696;SDS011;2873;50.966;7.210;2022-08-26T06:23:52;75.30;;;43.20;;
5696;SDS011;2873;50.966;7.210;2022-08-26T06:26:39;76.75;;;44.85;;
5696;SDS011;2873;50.966;7.210;2022-08-26T06:29:05;71.85;;;41.33;;
5696;SDS011;2873;50.966;7.210;2022-08-26T06:31:32;78.35;;;43.08;;
5696;SDS011;2873;50.966;7.210;2022-08-26T06:34:00;84.05;;;46.40;;
5696;SDS011;2873;50.966;7.210;2022-08-26T06:36:29;75.15;;;42.85;;
5696;SDS011;2873;50.966;7.210;2022-08-26T06:38:58;75.50;;;40.92;;
5696;SDS011;2873;50.966;7.210;2022-08-26T06:41:29;76.90;;;43.95;;
5696;SDS011;2873;50.966;7.210;2022-08-26T06:43:58;78.97;;;45.80;;
5696;SDS011;2873;50.966;7.210;2022-08-26T06:46:25;84.95;;;44.35;;
5696;SDS011;2873;50.966;7.210;2022-08-26T06:48:52;84.07;;;47.63;;
5696;SDS011;2873;50.966;7.210;2022-08-26T06:51:19;80.10;;;45.63;;
5696;SDS011;2873;50.966;7.210;2022-08-26T06:53:47;77.90;;;43.92;;
5696;SDS011;2873;50.966;7.210;2022-08-26T06:56:15;91.18;;;46.45;;
5696;SDS011;2873;50.966;7.210;2022-08-26T06:58:43;68.43;;;40.20;;
5696;SDS011;2873;50.966;7.210;2022-08-26T07:01:42;70.05;;;41.40;;
5696;SDS011;2873;50.966;7.210;2022-08-26T07:04:03;80.95;;;43.92;;
5696;SDS011;2873;50.966;7.210;2022-08-26T07:06:34;82.10;;;44.25;;
5696;SDS011;2873;50.966;7.210;2022-08-26T07:09:03;85.83;;;47.40;;
5696;SDS011;2873;50.966;7.210;2022-08-26T07:11:31;83.27;;;45.53;;
5696;SDS011;2873;50.966;7.210;2022-08-26T07:13:57;74.80;;;42.03;;
5696;SDS011;2873;50.966;7.210;2022-08-26T07:16:23;69.57;;;40.15;;
5696;SDS011;2873;50.966;7.210;2022-08-26T07:18:50;70.78;;;42.08;;
5696;SDS011;2873;50.966;7.210;2022-08-26T07:21:18;66.47;;;39.60;;
5696;SDS011;2873;50.966;7.210;2022-08-26T07:23:44;71.10;;;40.75;;
5696;SDS011;2873;50.966;7.210;2022-08-26T07:26:12;69.05;;;40.65;;
5696;SDS011;2873;50.966;7.210;2022-08-26T07:28:44;73.13;;;41.38;;
5696;SDS011;2873;50.966;7.210;2022-08-26T07:31:11;76.38;;;42.90;;
5696;SDS011;2873;50.966;7.210;2022-08-26T07:33:37;73.93;;;42.40;;
5696;SDS011;2873;50.966;7.210;2022-08-26T07:36:04;65.22;;;40.13;;
5696;SDS011;2873;50.966;7.210;2022-08-26T07:38:30;67.93;;;41.13;;
5696;SDS011;2873;50.966;7.210;2022-08-26T07:40:56;68.00;;;39.60;;
5696;SDS011;2873;50.966;7.210;2022-08-26T07:43:22;69.07;;;41.27;;
5696;SDS011;2873;50.966;7.210;2022-08-26T07:45:48;60.35;;;38.08;;
5696;SDS011;2873;50.966;7.210;2022-08-26T07:48:14;63.03;;;38.20;;
5696;SDS011;2873;50.966;7.210;2022-08-26T07:50:40;60.63;;;38.70;;
5696;SDS011;2873;50.966;7.210;2022-08-26T07:53:06;60.70;;;38.85;;
5696;SDS011;2873;50.966;7.210;2022-08-26T07:55:33;58.47;;;37.50;;
5696;SDS011;2873;50.966;7.210;2022-08-26T07:57:58;48.13;;;32.58;;
5696;SDS011;2873;50.966;7.210;2022-08-26T08:00:24;42.00;;;29.57;;
5696;SDS011;2873;50.966;7.210;2022-08-26T08:02:50;39.42;;;27.98;;
5696;SDS011;2873;50.966;7.210;2022-08-26T08:05:17;40.97;;;28.20;;
5696;SDS011;2873;50.966;7.210;2022-08-26T08:07:44;43.60;;;29.70;;
5696;SDS011;2873;50.966;7.210;2022-08-26T08:10:11;43.33;;;27.57;;
5696;SDS011;2873;50.966;7.210;2022-08-26T08:12:41;38.38;;;27.13;;
5696;SDS011;2873;50.966;7.210;2022-08-26T08:15:07;39.10;;;25.45;;
5696;SDS011;2873;50.966;7.210;2022-08-26T08:17:35;38.08;;;26.67;;
5696;SDS011;2873;50.966;7.210;2022-08-26T08:20:01;37.67;;;26.48;;
5696;SDS011;2873;50.966;7.210;2022-08-26T08:22:28;40.75;;;27.63;;
5696;SDS011;2873;50.966;7.210;2022-08-26T08:24:53;34.63;;;26.35;;
5696;SDS011;2873;50.966;7.210;2022-08-26T08:27:19;37.60;;;27.70;;
5696;SDS011;2873;50.966;7.210;2022-08-26T08:29:45;39.75;;;27.20;;
5696;SDS011;2873;50.966;7.210;2022-08-26T08:32:11;39.30;;;26.57;;
5696;SDS011;2873;50.966;7.210;2022-08-26T08:34:37;37.88;;;28.08;;
5696;SDS011;2873;50.966;7.210;2022-08-26T08:37:04;36.85;;;25.08;;
5696;SDS011;2873;50.966;7.210;2022-08-26T08:39:30;35.03;;;25.30;;
5696;SDS011;2873;50.966;7.210;2022-08-26T08:44:44;29.65;;;21.50;;
5696;SDS011;2873;50.966;7.210;2022-08-26T08:47:35;34.10;;;23.48;;
5696;SDS011;2873;50.966;7.210;2022-08-26T08:50:46;30.13;;;23.83;;
5696;SDS011;2873;50.966;7.210;2022-08-26T08:53:18;31.80;;;21.45;;
5696;SDS011;2873;50.966;7.210;2022-08-26T09:01:27;31.45;;;23.38;;
5696;SDS011;2873;50.966;7.210;2022-08-26T09:06:44;31.23;;;23.25;;
5696;SDS011;2873;50.966;7.210;2022-08-26T09:09:13;28.67;;;22.83;;
5696;SDS011;2873;50.966;7.210;2022-08-26T09:11:45;35.97;;;23.70;;
5696;SDS011;2873;50.966;7.210;2022-08-26T09:14:11;37.53;;;24.80;;
5696;SDS011;2873;50.966;7.210;2022-08-26T09:16:44;29.63;;;23.13;;
5696;SDS011;2873;50.966;7.210;2022-08-26T09:19:22;29.92;;;22.55;;
5696;SDS011;2873;50.966;7.210;2022-08-26T09:21:58;31.45;;;23.63;;
5696;SDS011;2873;50.966;7.210;2022-08-26T09:24:25;29.58;;;21.00;;
5696;SDS011;2873;50.966;7.210;2022-08-26T09:26:53;27.70;;;22.50;;
5696;SDS011;2873;50.966;7.210;2022-08-26T09:29:25;29.88;;;22.95;;
5696;SDS011;2873;50.966;7.210;2022-08-26T09:34:59;28.85;;;23.20;;
5696;SDS011;2873;50.966;7.210;2022-08-26T09:45:30;31.63;;;23.13;;
5696;SDS011;2873;50.966;7.210;2022-08-26T09:47:55;34.15;;;24.40;;
5696;SDS011;2873;50.966;7.210;2022-08-26T09:50:36;35.78;;;25.90;;
5696;SDS011;2873;50.966;7.210;2022-08-26T09:53:23;34.38;;;23.33;;
5696;SDS011;2873;50.966;7.210;2022-08-26T09:56:09;28.30;;;21.75;;
5696;SDS011;2873;50.966;7.210;2022-08-26T09:58:39;27.55;;;22.38;;
5696;SDS011;2873;50.966;7.210;2022-08-26T10:01:08;27.30;;;20.90;;
5696;SDS011;2873;50.966;7.210;2022-08-26T10:04:12;27.38;;;18.70;;
5696;SDS011;2873;50.966;7.210;2022-08-26T10:07:08;25.10;;;18.30;;
5696;SDS011;2873;50.966;7.210;2022-08-26T10:09:35;24.75;;;17.58;;
5696;SDS011;2873;50.966;7.210;2022-08-26T10:12:05;24.58;;;15.85;;
5696;SDS011;2873;50.966;7.210;2022-08-26T10:14:37;21.58;;;15.93;;
5696;SDS011;2873;50.966;7.210;2022-08-26T10:17:21;22.65;;;16.23;;
5696;SDS011;2873;50.966;7.210;2022-08-26T10:20:04;22.92;;;14.93;;
5696;SDS011;2873;50.966;7.210;2022-08-26T10:25:25;20.00;;;15.02;;
5696;SDS011;2873;50.966;7.210;2022-08-26T10:28:59;21.20;;;14.03;;
5696;SDS011;2873;50.966;7.210;2022-08-26T10:31:21;18.27;;;15.32;;
5696;SDS011;2873;50.966;7.210;2022-08-26T10:33:48;17.47;;;13.77;;
5696;SDS011;2873;50.966;7.210;2022-08-26T10:36:15;16.70;;;13.00;;
5696;SDS011;2873;50.966;7.210;2022-08-26T10:39:03;15.15;;;12.80;;
5696;SDS011;2873;50.966;7.210;2022-08-26T10:41:32;17.23;;;13.10;;
5696;SDS011;2873;50.966;7.210;2022-08-26T10:44:04;19.08;;;14.75;;
5696;SDS011;2873;50.966;7.210;2022-08-26T10:46:53;19.73;;;14.53;;
5696;SDS011;2873;50.966;7.210;2022-08-26T10:49:25;18.90;;;16.33;;
5696;SDS011;2873;50.966;7.210;2022-08-26T10:51:58;20.33;;;16.40;;
5696;SDS011;2873;50.966;7.210;2022-08-26T10:57:12;24.45;;;17.20;;
5696;SDS011;2873;50.966;7.210;2022-08-26T11:00:03;24.13;;;17.38;;
5696;SDS011;2873;50.966;7.210;2022-08-26T11:03:05;27.67;;;19.67;;
5696;SDS011;2873;50.966;7.210;2022-08-26T11:08:45;37.33;;;23.50;;
5696;SDS011;2873;50.966;7.210;2022-08-26T11:14:05;32.33;;;21.03;;
5696;SDS011;2873;50.966;7.210;2022-08-26T11:19:09;30.80;;;21.70;;
5696;SDS011;2873;50.966;7.210;2022-08-26T11:22:01;29.40;;;19.25;;
5696;SDS011;2873;50.966;7.210;2022-08-26T11:30:31;36.47;;;22.15;;
5696;SDS011;2873;50.966;7.210;2022-08-26T11:32:58;34.00;;;22.77;;
5696;SDS011;2873;50.966;7.210;2022-08-26T11:38:02;27.88;;;20.52;;
5696;SDS011;2873;50.966;7.210;2022-08-26T11:40:38;25.92;;;17.92;;
5696;SDS011;2873;50.966;7.210;2022-08-26T11:43:10;26.40;;;18.30;;
5696;SDS011;2873;50.966;7.210;2022-08-26T11:45:44;34.75;;;25.63;;
5696;SDS011;2873;50.966;7.210;2022-08-26T11:48:35;33.85;;;25.02;;
5696;SDS011;2873;50.966;7.210;2022-08-26T11:53:34;39.90;;;32.28;;
5696;SDS011;2873;50.966;7.210;2022-08-26T11:56:06;41.15;;;31.17;;
5696;SDS011;2873;50.966;7.210;2022-08-26T11:58:41;41.42;;;32.20;;
5696;SDS011;2873;50.966;7.210;2022-08-26T12:01:08;43.75;;;32.15;;
5696;SDS011;2873;50.966;7.210;2022-08-26T12:03:48;49.05;;;31.50;;
5696;SDS011;2873;50.966;7.210;2022-08-26T12:06:28;35.85;;;28.38;;
5696;SDS011;2873;50.966;7.210;2022-08-26T12:08:59;39.35;;;28.35;;
5696;SDS011;2873;50.966;7.210;2022-08-26T12:11:32;34.83;;;26.23;;
5696;SDS011;2873;50.966;7.210;2022-08-26T12:14:01;40.60;;;27.35;;
5696;SDS011;2873;50.966;7.210;2022-08-26T12:16:32;36.35;;;25.48;;
5696;SDS011;2873;50.966;7.210;2022-08-26T12:19:00;33.13;;;25.20;;
5696;SDS011;2873;50.966;7.210;2022-08-26T12:21:45;36.50;;;25.15;;
5696;SDS011;2873;50.966;7.210;2022-08-26T12:24:17;31.20;;;24.53;;
5696;SDS011;2873;50.966;7.210;2022-08-26T12:26:44;34.63;;;24.70;;
5696;SDS011;2873;50.966;7.210;2022-08-26T12:29:26;35.15;;;25.25;;
5696;SDS011;2873;50.966;7.210;2022-08-26T12:32:05;38.70;;;28.48;;
5696;SDS011;2873;50.966;7.210;2022-08-26T12:34:37;41.13;;;30.08;;
5696;SDS011;2873;50.966;7.210;2022-08-26T12:37:05;40.08;;;31.60;;
5696;SDS011;2873;50.966;7.210;2022-08-26T12:39:36;44.33;;;32.40;;
5696;SDS011;2873;50.966;7.210;2022-08-26T12:44:43;42.85;;;33.88;;
5696;SDS011;2873;50.966;7.210;2022-08-26T12:52:24;42.80;;;30.60;;
5696;SDS011;2873;50.966;7.210;2022-08-26T12:55:34;40.30;;;31.42;;
5696;SDS011;2873;50.966;7.210;2022-08-26T13:00:40;35.42;;;28.80;;
5696;SDS011;2873;50.966;7.210;2022-08-26T13:14:19;28.10;;;21.70;;
5696;SDS011;2873;50.966;7.210;2022-08-26T13:16:45;24.65;;;20.50;;
5696;SDS011;2873;50.966;7.210;2022-08-26T13:19:13;26.65;;;20.75;;
5696;SDS011;2873;50.966;7.210;2022-08-26T13:21:47;26.83;;;21.60;;
5696;SDS011;2873;50.966;7.210;2022-08-26T13:24:18;27.90;;;20.60;;
5696;SDS011;2873;50.966;7.210;2022-08-26T13:26:50;24.75;;;20.38;;
5696;SDS011;2873;50.966;7.210;2022-08-26T13:29:17;22.73;;;19.55;;
5696;SDS011;2873;50.966;7.210;2022-08-26T13:31:43;26.65;;;20.35;;
5696;SDS011;2873;50.966;7.210;2022-08-26T13:34:10;30.85;;;21.88;;
5696;SDS011;2873;50.966;7.210;2022-08-26T13:36:38;25.80;;;20.67;;
5696;SDS011;2873;50.966;7.210;2022-08-26T13:39:04;24.37;;;20.80;;
5696;SDS011;2873;50.966;7.210;2022-08-26T13:41:30;22.88;;;20.17;;
5696;SDS011;2873;50.966;7.210;2022-08-26T13:43:56;27.40;;;22.00;;
5696;SDS011;2873;50.966;7.210;2022-08-26T13:46:23;26.95;;;22.02;;
5696;SDS011;2873;50.966;7.210;2022-08-26T13:48:49;26.73;;;21.70;;
5696;SDS011;2873;50.966;7.210;2022-08-26T13:51:15;24.37;;;20.33;;
5696;SDS011;2873;50.966;7.210;2022-08-26T13:53:42;22.35;;;19.83;;
5696;SDS011;2873;50.966;7.210;2022-08-26T13:56:08;24.10;;;19.77;;
5696;SDS011;2873;50.966;7.210;2022-08-26T13:58:34;21.65;;;19.45;;
5696;SDS011;2873;50.966;7.210;2022-08-26T14:00:59;22.45;;;18.45;;
5696;SDS011;2873;50.966;7.210;2022-08-26T14:03:26;21.08;;;17.52;;
5696;SDS011;2873;50.966;7.210;2022-08-26T14:05:52;20.05;;;16.50;;
5696;SDS011;2873;50.966;7.210;2022-08-26T14:08:18;22.73;;;15.98;;
5696;SDS011;2873;50.966;7.210;2022-08-26T14:10:45;18.50;;;15.00;;
5696;SDS011;2873;50.966;7.210;2022-08-26T14:13:11;15.20;;;13.30;;
5696;SDS011;2873;50.966;7.210;2022-08-26T14:15:37;17.52;;;13.43;;
5696;SDS011;2873;50.966;7.210;2022-08-26T14:18:04;19.73;;;15.60;;
5696;SDS011;2873;50.966;7.210;2022-08-26T14:20:31;18.98;;;16.98;;
5696;SDS011;2873;50.966;7.210;2022-08-26T14:22:58;18.05;;;15.02;;
5696;SDS011;2873;50.966;7.210;2022-08-26T14:25:24;15.65;;;13.93;;
5696;SDS011;2873;50.966;7.210;2022-08-26T14:27:51;15.50;;;12.87;;
5696;SDS011;2873;50.966;7.210;2022-08-26T14:30:20;14.82;;;11.95;;
5696;SDS011;2873;50.966;7.210;2022-08-26T14:32:48;17.40;;;11.77;;
5696;SDS011;2873;50.966;7.210;2022-08-26T14:35:17;15.13;;;10.98;;
5696;SDS011;2873;50.966;7.210;2022-08-26T14:37:45;16.83;;;11.10;;
5696;SDS011;2873;50.966;7.210;2022-08-26T14:40:12;12.90;;;9.90;;
5696;SDS011;2873;50.966;7.210;2022-08-26T14:42:38;20.00;;;11.35;;
5696;SDS011;2873;50.966;7.210;2022-08-26T14:45:05;12.63;;;11.32;;
5696;SDS011;2873;50.966;7.210;2022-08-26T14:47:33;12.50;;;8.05;;
5696;SDS011;2873;50.966;7.210;2022-08-26T14:49:59;10.02;;;7.47;;
5696;SDS011;2873;50.966;7.210;2022-08-26T14:52:25;8.95;;;4.97;;
5696;SDS011;2873;50.966;7.210;2022-08-26T14:54:50;6.78;;;5.28;;
5696;SDS011;2873;50.966;7.210;2022-08-26T14:57:16;6.82;;;4.80;;
5696;SDS011;2873;50.966;7.210;2022-08-26T14:59:43;6.82;;;4.80;;
5696;SDS011;2873;50.966;7.210;2022-08-26T15:02:10;7.07;;;4.32;;
5696;SDS011;2873;50.966;7.210;2022-08-26T15:04:37;6.53;;;3.83;;
5696;SDS011;2873;50.966;7.210;2022-08-26T15:07:04;5.53;;;3.10;;
5696;SDS011;2873;50.966;7.210;2022-08-26T15:09:32;5.03;;;3.40;;
5696;SDS011;2873;50.966;7.210;2022-08-26T15:11:59;7.33;;;3.37;;
5696;SDS011;2873;50.966;7.210;2022-08-26T15:14:25;3.10;;;2.58;;
5696;SDS011;2873;50.966;7.210;2022-08-26T15:16:52;8.10;;;3.30;;
5696;SDS011;2873;50.966;7.210;2022-08-26T15:19:21;7.72;;;3.67;;
5696;SDS011;2873;50.966;7.210;2022-08-26T15:21:48;4.70;;;3.50;;
5696;SDS011;2873;50.966;7.210;2022-08-26T15:24:15;6.78;;;3.40;;
5696;SDS011;2873;50.966;7.210;2022-08-26T15:26:43;7.70;;;3.90;;
5696;SDS011;2873;50.966;7.210;2022-08-26T15:29:10;8.88;;;3.40;;
5696;SDS011;2873;50.966;7.210;2022-08-26T15:31:36;4.97;;;3.30;;
5696;SDS011;2873;50.966;7.210;2022-08-26T15:34:03;8.50;;;3.83;;
5696;SDS011;2873;50.966;7.210;2022-08-26T15:36:30;4.93;;;2.78;;
5696;SDS011;2873;50.966;7.210;2022-08-26T15:38:57;6.40;;;2.80;;
5696;SDS011;2873;50.966;7.210;2022-08-26T15:41:24;7.28;;;3.47;;
5696;SDS011;2873;50.966;7.210;2022-08-26T15:43:50;6.40;;;3.13;;
5696;SDS011;2873;50.966;7.210;2022-08-26T15:46:16;5.25;;;3.08;;
5696;SDS011;2873;50.966;7.210;2022-08-26T15:48:41;8.70;;;4.00;;
5696;SDS011;2873;50.966;7.210;2022-08-26T15:51:07;11.63;;;4.40;;
5696;SDS011;2873;50.966;7.210;2022-08-26T15:53:47;8.38;;;4.60;;
5696;SDS011;2873;50.966;7.210;2022-08-26T15:56:13;7.75;;;4.47;;
5696;SDS011;2873;50.966;7.210;2022-08-26T15:58:38;6.90;;;5.03;;
5696;SDS011;2873;50.966;7.210;2022-08-26T16:01:04;7.50;;;4.90;;
5696;SDS011;2873;50.966;7.210;2022-08-26T16:03:30;8.90;;;5.30;;
5696;SDS011;2873;50.966;7.210;2022-08-26T16:05:56;11.60;;;5.00;;
5696;SDS011;2873;50.966;7.210;2022-08-26T16:08:21;9.03;;;5.40;;
5696;SDS011;2873;50.966;7.210;2022-08-26T16:10:47;9.20;;;6.27;;
5696;SDS011;2873;50.966;7.210;2022-08-26T16:13:13;7.23;;;6.33;;
5696;SDS011;2873;50.966;7.210;2022-08-26T16:15:39;7.78;;;6.70;;
5696;SDS011;2873;50.966;7.210;2022-08-26T16:18:05;9.43;;;6.40;;
5696;SDS011;2873;50.966;7.210;2022-08-26T16:20:33;8.48;;;6.68;;